Time;durP1;ratioP1;P1;durP2;ratioP2;P2;SDS_P1;SDS_P2;PMS_P1;PMS_P2;Temp;Humidity;BMP_temperature;BMP_pressure;BME280_temperature;BME280_humidity;BME280_pressure;Samples;Min_cycle;Max_cycle;Signal;HPM_P1;HPM_P2
2022/02/01 00:02:06;;;;;;;;;;;;;;;;;;4994786;28;19929;-71
2022/02/01 00:07:16;;;;;;;;;;;;;;;;;;5038229;28;19932;-71
2022/02/01 00:09:57;;;;;;;;;;;;;;;;;;5034933;28;19959;-71
2022/02/01 00:20:25;;;;;;;;;;;;;;;;;;5039098;28;20144;-69
2022/02/01 00:41:13;;;;;;;;;;;;;;;;;;5038217;28;19924;-69
2022/02/01 00:43:38;;;;;;;;;;;;;;;;;;5041147;28;20376;-69
2022/02/01 00:46:03;;;;;;;;;;;;;;;;;;5040142;28;20818;-69
2022/02/01 00:48:29;;;;;;;;;;;;;;;;;;5040680;28;20178;-69
2022/02/01 00:50:54;;;;;;;;;;;;;;;;;;5042429;28;20322;-69
2022/02/01 00:53:26;;;;;;;;;;;;;;;;;;5046043;28;19921;-69
2022/02/01 00:55:51;;;;;;;;;;;;;;;;;;5040594;28;19913;-69
2022/02/01 00:58:17;;;;;;;;;;;;;;;;;;5048393;28;19917;-69
2022/02/01 01:00:42;;;;;;;;;;;;;;;;;;5045571;28;19920;-69
2022/02/01 01:03:07;;;;;;;;;;;;;;;;;;5040267;28;20280;-69
2022/02/01 01:05:32;;;;;;;;;;;;;;;;;;5041227;28;20309;-69
2022/02/01 01:07:57;;;;;;;;;;;;;;;;;;5040644;28;20137;-69
2022/02/01 01:10:22;;;;;;;;;;;;;;;;;;5042303;28;20285;-69
2022/02/01 01:13:00;;;;;;;;;;;;;;;;;;5041733;28;20363;-69
2022/02/01 01:15:32;;;;;;;;;;;;;;;;;;5038160;28;21362;-68
2022/02/01 01:44:59;;;;;;;;;;;;;;;;;;5040336;28;19923;-68
2022/02/01 01:55:32;;;;;;;;;;;;;;;;;;5036327;28;20295;-68
2022/02/01 01:57:57;;;;;;;;;;;;;;;;;;5042570;28;20012;-68
2022/02/01 02:03:11;;;;;;;;;;;;;;;;;;5008063;22;20178;-68
2022/02/01 02:05:36;;;;;;;;;;;;;;;;;;5050554;28;20525;-68
2022/02/01 02:08:01;;;;;;;;;;;;;;;;;;5052343;28;19921;-68
2022/02/01 02:10:31;;;;;;;;;;;;;;;;;;5053256;28;20375;-68
2022/02/01 02:13:04;;;;;;;;;;;;;;;;;;5056946;28;20011;-68
2022/02/01 02:15:35;;;;;;;;;;;;;;;;;;5054160;28;20050;-68
2022/02/01 02:18:01;;;;;;;;;;;;;;;;;;5052488;28;19916;-68
2022/02/01 02:20:26;;;;;;;;;;;;;;;;;;5051814;28;19950;-68
2022/02/01 02:22:51;;;;;;;;;;;;;;;;;;5051451;28;20381;-68
2022/02/01 02:25:16;;;;;;;;;;;;;;;;;;5052357;28;19920;-68
2022/02/01 02:27:41;;;;;;;;;;;;;;;;;;5055695;28;19932;-68
2022/02/01 02:30:06;;;;;;;;;;;;;;;;;;5057200;28;20292;-68
2022/02/01 02:32:31;;;;;;;;;;;;;;;;;;5062756;28;20196;-68
2022/02/01 02:34:56;;;;;;;;;;;;;;;;;;5063047;28;19916;-68
2022/02/01 02:37:28;;;;;;;;;;;;;;;;;;5063176;28;20305;-68
2022/02/01 02:40:30;;;;;;;;;;;;;;;;;;5062142;28;20503;-68
2022/02/01 02:45:38;;;;;;;;;;;;;;;;;;5058566;28;20119;-68
2022/02/01 02:48:03;;;;;;;;;;;;;;;;;;5063728;28;19912;-68
2022/02/01 02:50:28;;;;;;;;;;;;;;;;;;5063745;28;19969;-68
2022/02/01 02:52:53;;;;;;;;;;;;;;;;;;5063183;28;20029;-68
2022/02/01 02:55:19;;;;;;;;;;;;;;;;;;5063061;28;19924;-68
2022/02/01 02:57:44;;;;;;;;;;;;;;;;;;5063519;28;19908;-68
2022/02/01 03:00:09;;;;;;;;;;;;;;;;;;5063068;28;20188;-68
2022/02/01 03:02:34;;;;;;;;;;;;;;;;;;5063151;28;20003;-68
2022/02/01 03:04:59;;;;;;;;;;;;;;;;;;5062624;28;19964;-68
2022/02/01 03:07:24;;;;;;;;;;;;;;;;;;5063214;28;20149;-68
2022/02/01 03:09:49;;;;;;;;;;;;;;;;;;5062943;28;19920;-68
2022/02/01 03:12:21;;;;;;;;;;;;;;;;;;5062624;28;20399;-68
2022/02/01 03:15:09;;;;;;;;;;;;;;;;;;5063011;28;19916;-68
2022/02/01 03:20:31;;;;;;;;;;;;;;;;;;4990860;28;19922;-68
2022/02/01 03:22:57;;;;;;;;;;;;;;;;;;5000536;28;19999;-68
2022/02/01 03:25:22;;;;;;;;;;;;;;;;;;5000272;28;19924;-68
2022/02/01 03:27:47;;;;;;;;;;;;;;;;;;5000248;28;19918;-68
2022/02/01 03:30:12;;;;;;;;;;;;;;;;;;5000921;28;19953;-68
2022/02/01 03:32:37;;;;;;;;;;;;;;;;;;4998035;28;19914;-68
2022/02/01 03:35:02;;;;;;;;;;;;;;;;;;4996718;28;19917;-68
2022/02/01 03:37:27;;;;;;;;;;;;;;;;;;5000639;28;20565;-68
2022/02/01 03:39:52;;;;;;;;;;;;;;;;;;4994200;28;19918;-68
2022/02/01 03:42:19;;;;;;;;;;;;;;;;;;4999037;28;19914;-68
2022/02/01 03:44:45;;;;;;;;;;;;;;;;;;4995539;28;20429;-68
2022/02/01 03:47:10;;;;;;;;;;;;;;;;;;4994077;28;20480;-68
2022/02/01 03:49:35;;;;;;;;;;;;;;;;;;4991850;28;19921;-68
2022/02/01 03:52:00;;;;;;;;;;;;;;;;;;4996753;28;19921;-68
2022/02/01 03:54:25;;;;;;;;;;;;;;;;;;4997431;28;19921;-69
2022/02/01 03:56:50;;;;;;;;;;;;;;;;;;5045080;28;19916;-69
2022/02/01 03:59:16;;;;;;;;;;;;;;;;;;5059215;28;19978;-69
2022/02/01 04:01:41;;;;;;;;;;;;;;;;;;5059887;28;20319;-69
2022/02/01 04:04:06;;;;;;;;;;;;;;;;;;5057914;28;19924;-69
2022/02/01 04:06:31;;;;;;;;;;;;;;;;;;5059410;28;20395;-69
2022/02/01 04:08:56;;;;;;;;;;;;;;;;;;5059528;28;20071;-69
2022/02/01 04:11:21;;;;;;;;;;;;;;;;;;5058403;28;20328;-68
2022/02/01 04:13:46;;;;;;;;;;;;;;;;;;5058814;28;19952;-68
2022/02/01 04:16:12;;;;;;;;;;;;;;;;;;5059162;28;19912;-68
2022/02/01 04:18:37;;;;;;;;;;;;;;;;;;5059787;28;20344;-68
2022/02/01 04:21:02;;;;;;;;;;;;;;;;;;5058690;28;19916;-68
2022/02/01 04:23:27;;;;;;;;;;;;;;;;;;5059547;28;19923;-68
2022/02/01 04:25:53;;;;;;;;;;;;;;;;;;5059003;28;19970;-68
2022/02/01 04:28:18;;;;;;;;;;;;;;;;;;5059811;28;20163;-68
2022/02/01 04:30:43;;;;;;;;;;;;;;;;;;5064493;28;19935;-69
2022/02/01 04:33:08;;;;;;;;;;;;;;;;;;5060820;28;20359;-68
2022/02/01 04:35:33;;;;;;;;;;;;;;;;;;5058594;28;19916;-70
2022/02/01 04:37:58;;;;;;;;;;;;;;;;;;5059101;28;19913;-71
2022/02/01 04:40:23;;;;;;;;;;;;;;;;;;5058831;28;19913;-71
2022/02/01 04:42:49;;;;;;;;;;;;;;;;;;5058878;28;19912;-70
2022/02/01 04:45:15;;;;;;;;;;;;;;;;;;5049707;28;21406;-70
2022/02/01 04:47:40;;;;;;;;;;;;;;;;;;5059490;28;19912;-70
2022/02/01 04:50:05;;;;;;;;;;;;;;;;;;5058394;28;19917;-71
2022/02/01 04:52:31;;;;;;;;;;;;;;;;;;5058227;28;20391;-71
2022/02/01 04:54:57;;;;;;;;;;;;;;;;;;5057989;28;20408;-71
2022/02/01 04:57:22;;;;;;;;;;;;;;;;;;5058548;28;20311;-71
2022/02/01 04:59:47;;;;;;;;;;;;;;;;;;5056804;28;19919;-71
2022/02/01 05:02:13;;;;;;;;;;;;;;;;;;5057382;28;19999;-70
2022/02/01 05:04:38;;;;;;;;;;;;;;;;;;5057628;28;19927;-70
2022/02/01 05:07:03;;;;;;;;;;;;;;;;;;5057756;28;19920;-68
2022/02/01 05:09:28;;;;;;;;;;;;;;;;;;5057415;28;19912;-68
2022/02/01 05:11:55;;;;;;;;;;;;;;;;;;5057338;28;20410;-68
2022/02/01 05:14:24;;;;;;;;;;;;;;;;;;5057323;28;19952;-68
2022/02/01 05:19:25;;;;;;;;;;;;;;;;;;5058077;28;19982;-70
2022/02/01 05:21:51;;;;;;;;;;;;;;;;;;5057478;28;19934;-68
2022/02/01 05:24:16;;;;;;;;;;;;;;;;;;5057359;28;20433;-68
2022/02/01 05:26:42;;;;;;;;;;;;;;;;;;5058113;28;19921;-68
2022/02/01 05:29:08;;;;;;;;;;;;;;;;;;5057493;28;20085;-69
2022/02/01 05:31:33;;;;;;;;;;;;;;;;;;5057444;28;19951;-68
2022/02/01 05:33:58;;;;;;;;;;;;;;;;;;5054271;28;19913;-68
2022/02/01 05:36:23;;;;;;;;;;;;;;;;;;5054220;28;19924;-69
2022/02/01 05:38:51;;;;;;;;;;;;;;;;;;5055756;28;19924;-69
2022/02/01 05:41:16;;;;;;;;;;;;;;;;;;5054636;28;19981;-69
2022/02/01 05:43:43;;;;;;;;;;;;;;;;;;5053080;28;19917;-69
2022/02/01 05:46:08;;;;;;;;;;;;;;;;;;5052891;28;19925;-69
2022/02/01 05:48:33;;;;;;;;;;;;;;;;;;5051844;28;19921;-69
2022/02/01 05:51:00;;;;;;;;;;;;;;;;;;5057406;28;20003;-69
2022/02/01 05:53:25;;;;;;;;;;;;;;;;;;5058314;28;20276;-69
2022/02/01 05:55:50;;;;;;;;;;;;;;;;;;5056705;28;20384;-69
2022/02/01 05:58:16;;;;;;;;;;;;;;;;;;5058637;28;19952;-69
2022/02/01 06:00:41;;;;;;;;;;;;;;;;;;5056553;28;19917;-69
2022/02/01 06:03:06;;;;;;;;;;;;;;;;;;5051800;28;20190;-69
2022/02/01 06:05:31;;;;;;;;;;;;;;;;;;5052602;28;19928;-69
2022/02/01 06:07:56;;;;;;;;;;;;;;;;;;5052147;28;20347;-69
2022/02/01 06:10:21;;;;;;;;;;;;;;;;;;5053492;28;19913;-69
2022/02/01 06:12:47;;;;;;;;;;;;;;;;;;5051718;28;19916;-69
2022/02/01 06:15:12;;;;;;;;;;;;;;;;;;5055747;28;19916;-69
2022/02/01 06:17:37;;;;;;;;;;;;;;;;;;5054071;28;20403;-69
2022/02/01 06:20:05;;;;;;;;;;;;;;;;;;5054304;28;20368;-69
2022/02/01 06:22:30;;;;;;;;;;;;;;;;;;5051415;28;20141;-69
2022/02/01 06:24:56;;;;;;;;;;;;;;;;;;5055615;28;20322;-69
2022/02/01 06:27:21;;;;;;;;;;;;;;;;;;5057565;28;20015;-69
2022/02/01 06:29:46;;;;;;;;;;;;;;;;;;5056183;28;20445;-69
2022/02/01 06:32:11;;;;;;;;;;;;;;;;;;5057424;28;19912;-69
2022/02/01 06:34:37;;;;;;;;;;;;;;;;;;5056817;28;20443;-69
2022/02/01 06:37:02;;;;;;;;;;;;;;;;;;5056599;28;19959;-69
2022/02/01 06:39:27;;;;;;;;;;;;;;;;;;5055706;28;20129;-69
2022/02/01 06:41:52;;;;;;;;;;;;;;;;;;5054568;28;19979;-69
2022/02/01 06:44:17;;;;;;;;;;;;;;;;;;5056799;28;19928;-70
2022/02/01 06:46:42;;;;;;;;;;;;;;;;;;5054733;28;19931;-69
2022/02/01 06:49:10;;;;;;;;;;;;;;;;;;5055553;28;19913;-69
2022/02/01 06:51:36;;;;;;;;;;;;;;;;;;5052030;28;19920;-69
2022/02/01 06:54:02;;;;;;;;;;;;;;;;;;5049487;28;19939;-69
2022/02/01 06:56:30;;;;;;;;;;;;;;;;;;5051117;28;19920;-69
2022/02/01 06:58:56;;;;;;;;;;;;;;;;;;5061361;28;19963;-70
2022/02/01 07:01:21;;;;;;;;;;;;;;;;;;5060623;28;19956;-69
2022/02/01 07:03:46;;;;;;;;;;;;;;;;;;5059646;28;20262;-69
2022/02/01 07:06:12;;;;;;;;;;;;;;;;;;5060534;28;20461;-69
2022/02/01 07:08:38;;;;;;;;;;;;;;;;;;5066120;28;20396;-69
2022/02/01 07:11:03;;;;;;;;;;;;;;;;;;5067426;28;20479;-70
2022/02/01 07:13:29;;;;;;;;;;;;;;;;;;5066788;28;19909;-69
2022/02/01 07:15:55;;;;;;;;;;;;;;;;;;5068228;28;19913;-69
2022/02/01 07:18:20;;;;;;;;;;;;;;;;;;5067433;28;19925;-69
2022/02/01 07:20:46;;;;;;;;;;;;;;;;;;5067990;28;20014;-69
2022/02/01 07:23:15;;;;;;;;;;;;;;;;;;5066379;28;19981;-70
2022/02/01 07:25:46;;;;;;;;;;;;;;;;;;5062761;28;20038;-70
2022/02/01 07:28:12;;;;;;;;;;;;;;;;;;5069733;28;19912;-69
2022/02/01 07:30:37;;;;;;;;;;;;;;;;;;5067964;28;20068;-68
2022/02/01 07:33:02;;;;;;;;;;;;;;;;;;5071341;28;20376;-68
2022/02/01 07:35:30;;;;;;;;;;;;;;;;;;5071594;28;19916;-68
2022/02/01 07:37:55;;;;;;;;;;;;;;;;;;5071230;28;19916;-68
2022/02/01 07:40:20;;;;;;;;;;;;;;;;;;5069935;28;20256;-68
2022/02/01 07:42:45;;;;;;;;;;;;;;;;;;5070994;28;19942;-68
2022/02/01 07:45:12;;;;;;;;;;;;;;;;;;5071097;28;19955;-68
2022/02/01 07:47:37;;;;;;;;;;;;;;;;;;5069705;28;20757;-68
2022/02/01 07:50:02;;;;;;;;;;;;;;;;;;5070275;28;20003;-68
2022/02/01 07:52:27;;;;;;;;;;;;;;;;;;5070120;28;19916;-69
2022/02/01 07:54:52;;;;;;;;;;;;;;;;;;5070663;28;20423;-69
2022/02/01 07:57:17;;;;;;;;;;;;;;;;;;5071277;28;19912;-69
2022/02/01 07:59:42;;;;;;;;;;;;;;;;;;5071286;28;20003;-69
2022/02/01 08:02:25;;;;;;;;;;;;;;;;;;5071737;28;19956;-69
2022/02/01 08:04:52;;;;;;;;;;;;;;;;;;5067716;28;19966;-69
2022/02/01 08:07:19;;;;;;;;;;;;;;;;;;5069524;28;19916;-69
2022/02/01 08:09:47;;;;;;;;;;;;;;;;;;5070378;28;19913;-69
2022/02/01 08:12:31;;;;;;;;;;;;;;;;;;5070532;28;19913;-69
2022/02/01 08:17:56;;;;;;;;;;;;;;;;;;5070732;28;20403;-69
2022/02/01 08:20:16;;;;;;;;;;;;;;;;;;5068096;28;19912;-69
2022/02/01 08:25:10;;;;;;;;;;;;;;;;;;5064813;28;19970;-69
2022/02/01 08:27:35;;;;;;;;;;;;;;;;;;5070471;28;19916;-69
2022/02/01 08:30:00;;;;;;;;;;;;;;;;;;5067859;28;20386;-69
2022/02/01 08:32:25;;;;;;;;;;;;;;;;;;5070870;28;19913;-69
2022/02/01 08:34:50;;;;;;;;;;;;;;;;;;5068150;28;19912;-69
2022/02/01 08:37:15;;;;;;;;;;;;;;;;;;5067781;28;19912;-69
2022/02/01 08:39:40;;;;;;;;;;;;;;;;;;5065797;28;19928;-69
2022/02/01 08:42:05;;;;;;;;;;;;;;;;;;5069904;28;19916;-69
2022/02/01 08:44:31;;;;;;;;;;;;;;;;;;5069862;28;20339;-69
2022/02/01 08:46:56;;;;;;;;;;;;;;;;;;5069890;28;19927;-69
2022/02/01 08:49:21;;;;;;;;;;;;;;;;;;5067197;28;20265;-70
2022/02/01 08:51:56;;;;;;;;;;;;;;;;;;5069955;28;19923;-69
2022/02/01 08:54:22;;;;;;;;;;;;;;;;;;5068917;28;20335;-69
2022/02/01 08:59:31;;;;;;;;;;;;;;;;;;5068683;28;19994;-69
2022/02/01 09:01:56;;;;;;;;;;;;;;;;;;5051011;28;19936;-69
2022/02/01 09:04:21;;;;;;;;;;;;;;;;;;5068159;28;19924;-69
2022/02/01 09:06:46;;;;;;;;;;;;;;;;;;5069937;28;19925;-69
2022/02/01 09:09:11;;;;;;;;;;;;;;;;;;5068340;28;19975;-69
2022/02/01 09:11:36;;;;;;;;;;;;;;;;;;5070031;28;19919;-69
2022/02/01 09:14:01;;;;;;;;;;;;;;;;;;5069244;28;19966;-69
2022/02/01 09:16:27;;;;;;;;;;;;;;;;;;5070007;28;19999;-68
2022/02/01 09:18:54;;;;;;;;;;;;;;;;;;5066516;28;20403;-69
2022/02/01 09:21:19;;;;;;;;;;;;;;;;;;5066523;28;20004;-69
2022/02/01 09:23:44;;;;;;;;;;;;;;;;;;5052075;28;19908;-69
2022/02/01 09:26:09;;;;;;;;;;;;;;;;;;5069250;28;19916;-69
2022/02/01 09:28:35;;;;;;;;;;;;;;;;;;5068557;28;20116;-69
2022/02/01 09:31:00;;;;;;;;;;;;;;;;;;5068539;28;19912;-69
2022/02/01 09:33:25;;;;;;;;;;;;;;;;;;5068378;28;19912;-69
2022/02/01 09:35:50;;;;;;;;;;;;;;;;;;5068712;28;19948;-69
2022/02/01 09:38:17;;;;;;;;;;;;;;;;;;5069792;28;19909;-69
2022/02/01 09:40:42;;;;;;;;;;;;;;;;;;5067692;28;20364;-68
2022/02/01 09:43:07;;;;;;;;;;;;;;;;;;5067608;28;19923;-69
2022/02/01 09:45:34;;;;;;;;;;;;;;;;;;5068367;28;19913;-68
2022/02/01 09:47:59;;;;;;;;;;;;;;;;;;5069285;28;19913;-71
2022/02/01 09:50:25;;;;;;;;;;;;;;;;;;5065741;28;19919;-68
2022/02/01 09:52:50;;;;;;;;;;;;;;;;;;5069415;28;19909;-68
2022/02/01 09:55:15;;;;;;;;;;;;;;;;;;5067079;28;19912;-68
2022/02/01 09:57:44;;;;;;;;;;;;;;;;;;5069120;28;19912;-68
2022/02/01 10:00:14;;;;;;;;;;;;;;;;;;5069060;28;20411;-68
2022/02/01 10:02:40;;;;;;;;;;;;;;;;;;5069219;28;20092;-68
2022/02/01 10:05:05;;;;;;;;;;;;;;;;;;5068550;28;19921;-67
2022/02/01 10:07:30;;;;;;;;;;;;;;;;;;5065777;28;20010;-68
2022/02/01 10:09:56;;;;;;;;;;;;;;;;;;5067421;28;19916;-68
2022/02/01 10:12:21;;;;;;;;;;;;;;;;;;5069110;28;20110;-68
2022/02/01 10:14:56;;;;;;;;;;;;;;;;;;5067895;28;20216;-67
2022/02/01 10:17:21;;;;;;;;;;;;;;;;;;5067218;28;20016;-68
2022/02/01 10:19:46;;;;;;;;;;;;;;;;;;5067986;28;19995;-67
2022/02/01 10:22:11;;;;;;;;;;;;;;;;;;5066502;28;19912;-68
2022/02/01 10:24:36;;;;;;;;;;;;;;;;;;5068817;28;19917;-67
2022/02/01 10:27:01;;;;;;;;;;;;;;;;;;5068440;28;19921;-68
2022/02/01 10:29:27;;;;;;;;;;;;;;;;;;5068597;28;19917;-68
2022/02/01 10:31:56;;;;;;;;;;;;;;;;;;5071793;28;19913;-67
2022/02/01 10:36:53;;;;;;;;;;;;;;;;;;5067921;28;19912;-67
2022/02/01 10:39:18;;;;;;;;;;;;;;;;;;5068074;28;20784;-67
2022/02/01 10:41:43;;;;;;;;;;;;;;;;;;5067990;28;19919;-67
2022/02/01 10:44:08;;;;;;;;;;;;;;;;;;5065972;28;19916;-67
2022/02/01 10:46:33;;;;;;;;;;;;;;;;;;5068136;28;19921;-67
2022/02/01 10:48:59;;;;;;;;;;;;;;;;;;5066609;28;19917;-68
2022/02/01 10:51:24;;;;;;;;;;;;;;;;;;5068857;28;19920;-67
2022/02/01 10:53:51;;;;;;;;;;;;;;;;;;5071877;28;19916;-67
2022/02/01 10:56:16;;;;;;;;;;;;;;;;;;5071656;28;20103;-67
2022/02/01 10:58:42;;;;;;;;;;;;;;;;;;5071891;28;19935;-67
2022/02/01 11:01:07;;;;;;;;;;;;;;;;;;5068091;28;19916;-68
2022/02/01 11:03:32;;;;;;;;;;;;;;;;;;5071354;28;19916;-67
2022/02/01 11:05:57;;;;;;;;;;;;;;;;;;5069845;28;19970;-67
2022/02/01 11:08:22;;;;;;;;;;;;;;;;;;5072488;28;20043;-67
2022/02/01 11:10:47;;;;;;;;;;;;;;;;;;5070456;28;20189;-68
2022/02/01 11:13:12;;;;;;;;;;;;;;;;;;5072543;28;19916;-67
2022/02/01 11:15:37;;;;;;;;;;;;;;;;;;5070891;28;19918;-67
2022/02/01 11:18:03;;;;;;;;;;;;;;;;;;5071756;28;20041;-68
2022/02/01 11:20:28;;;;;;;;;;;;;;;;;;5069898;28;19934;-67
2022/02/01 11:22:54;;;;;;;;;;;;;;;;;;5070925;28;19958;-67
2022/02/01 11:25:25;;;;;;;;;;;;;;;;;;5068612;28;20256;-67
2022/02/01 11:30:30;;;;;;;;;;;;;;;;;;5069626;28;20086;-67
2022/02/01 11:32:55;;;;;;;;;;;;;;;;;;5071417;28;20002;-67
2022/02/01 11:35:21;;;;;;;;;;;;;;;;;;5066829;28;19944;-68
2022/02/01 11:37:46;;;;;;;;;;;;;;;;;;5060682;28;19920;-67
2022/02/01 11:40:12;;;;;;;;;;;;;;;;;;5060486;28;19936;-67
2022/02/01 11:42:37;;;;;;;;;;;;;;;;;;5060544;28;20296;-67
2022/02/01 11:45:02;;;;;;;;;;;;;;;;;;5059911;28;20372;-68
2022/02/01 11:47:27;;;;;;;;;;;;;;;;;;5060047;28;19917;-68
2022/02/01 11:49:52;;;;;;;;;;;;;;;;;;5058546;28;19913;-68
2022/02/01 11:52:17;;;;;;;;;;;;;;;;;;5060857;28;20438;-67
2022/02/01 11:54:42;;;;;;;;;;;;;;;;;;5059996;28;20340;-70
2022/02/01 11:57:07;;;;;;;;;;;;;;;;;;5060462;28;19919;-68
2022/02/01 11:59:33;;;;;;;;;;;;;;;;;;5059131;28;19917;-68
2022/02/01 12:01:58;;;;;;;;;;;;;;;;;;5060099;28;19909;-68
2022/02/01 12:04:23;;;;;;;;;;;;;;;;;;5057151;28;20396;-68
2022/02/01 12:06:53;;;;;;;;;;;;;;;;;;5059362;28;20379;-68
2022/02/01 12:09:20;;;;;;;;;;;;;;;;;;5054278;28;19921;-68
2022/02/01 12:11:45;;;;;;;;;;;;;;;;;;5060101;28;20391;-68
2022/02/01 12:14:10;;;;;;;;;;;;;;;;;;5059463;28;20522;-68
2022/02/01 12:16:36;;;;;;;;;;;;;;;;;;5060296;28;19916;-68
2022/02/01 12:19:01;;;;;;;;;;;;;;;;;;5059221;28;19952;-68
2022/02/01 12:21:32;;;;;;;;;;;;;;;;;;5059455;28;19912;-68
2022/02/01 12:23:58;;;;;;;;;;;;;;;;;;5059849;28;19969;-68
2022/02/01 12:26:23;;;;;;;;;;;;;;;;;;5059784;28;20479;-68
2022/02/01 12:28:48;;;;;;;;;;;;;;;;;;5059638;28;20156;-68
2022/02/01 12:31:13;;;;;;;;;;;;;;;;;;5059368;28;19913;-68
2022/02/01 12:33:38;;;;;;;;;;;;;;;;;;5059921;28;19908;-68
2022/02/01 12:36:03;;;;;;;;;;;;;;;;;;5059090;28;19922;-68
2022/02/01 12:38:30;;;;;;;;;;;;;;;;;;5059130;28;19929;-68
2022/02/01 12:41:00;;;;;;;;;;;;;;;;;;5058050;28;20199;-68
2022/02/01 12:43:29;;;;;;;;;;;;;;;;;;5060044;28;20127;-68
2022/02/01 12:46:30;;;;;;;;;;;;;;;;;;5058696;28;19917;-68
2022/02/01 12:48:51;;;;;;;;;;;;;;;;;;5059193;28;21576;-68
2022/02/01 12:51:16;;;;;;;;;;;;;;;;;;5059473;28;19927;-68
2022/02/01 12:53:41;;;;;;;;;;;;;;;;;;5058206;28;19939;-68
2022/02/01 12:56:06;;;;;;;;;;;;;;;;;;5057702;28;20338;-68
2022/02/01 12:58:31;;;;;;;;;;;;;;;;;;5056661;28;19920;-68
2022/02/01 13:00:57;;;;;;;;;;;;;;;;;;5058958;28;20035;-68
2022/02/01 13:03:23;;;;;;;;;;;;;;;;;;5059439;28;20076;-68
2022/02/01 13:05:48;;;;;;;;;;;;;;;;;;5058800;28;20155;-68
2022/02/01 13:20:58;;;;;;;;;;;;;;;;;;5056469;28;20121;-68
2022/02/01 13:23:23;;;;;;;;;;;;;;;;;;5059058;28;19973;-68
2022/02/01 13:25:50;;;;;;;;;;;;;;;;;;5057096;28;19912;-68
2022/02/01 13:28:15;;;;;;;;;;;;;;;;;;5059715;28;20337;-68
2022/02/01 13:30:40;;;;;;;;;;;;;;;;;;5056954;28;19913;-68
2022/02/01 13:33:05;;;;;;;;;;;;;;;;;;5057999;28;20478;-69
2022/02/01 13:35:30;;;;;;;;;;;;;;;;;;5058542;28;20384;-68
2022/02/01 13:37:55;;;;;;;;;;;;;;;;;;5059297;28;20376;-68
2022/02/01 13:40:20;;;;;;;;;;;;;;;;;;5057670;28;20492;-68
2022/02/01 13:42:46;;;;;;;;;;;;;;;;;;5057606;28;19916;-68
2022/02/01 13:45:13;;;;;;;;;;;;;;;;;;5057576;28;19998;-68
2022/02/01 13:47:38;;;;;;;;;;;;;;;;;;5058052;28;19917;-68
2022/02/01 13:50:03;;;;;;;;;;;;;;;;;;5057747;28;20572;-68
2022/02/01 13:52:28;;;;;;;;;;;;;;;;;;5058063;28;19909;-68
2022/02/01 13:54:54;;;;;;;;;;;;;;;;;;5058070;28;19936;-68
2022/02/01 13:57:19;;;;;;;;;;;;;;;;;;5058744;28;19948;-68
2022/02/01 13:59:44;;;;;;;;;;;;;;;;;;5058459;28;19912;-68
2022/02/01 14:02:10;;;;;;;;;;;;;;;;;;5058940;28;20142;-68
2022/02/01 14:04:46;;;;;;;;;;;;;;;;;;5057543;28;20526;-68
2022/02/01 14:10:02;;;;;;;;;;;;;;;;;;5058849;28;20025;-68
2022/02/01 14:28:33;;;;;;;;;;;;;;;;;;4975850;28;20145;-68
2022/02/01 14:34:04;;;;;;;;;;;;;;;;;;4955663;28;19954;-68
2022/02/01 14:36:31;;;;;;;;;;;;;;;;;;4941996;28;19921;-68
2022/02/01 14:39:05;;;;;;;;;;;;;;;;;;4947821;28;20024;-68
2022/02/01 14:46:57;;;;;;;;;;;;;;;;;;4943307;28;19966;-68
2022/02/01 14:49:24;;;;;;;;;;;;;;;;;;4942300;28;20465;-68
2022/02/01 14:51:49;;;;;;;;;;;;;;;;;;4942998;28;20008;-68
2022/02/01 14:54:18;;;;;;;;;;;;;;;;;;4955217;28;20062;-68
2022/02/01 14:56:44;;;;;;;;;;;;;;;;;;4946335;28;19914;-68
2022/02/01 15:04:57;;;;;;;;;;;;;;;;;;4942191;28;19933;-68
2022/02/01 15:07:35;;;;;;;;;;;;;;;;;;4970746;28;19924;-68
2022/02/01 15:12:47;;;;;;;;;;;;;;;;;;5018440;28;20022;-68
2022/02/01 15:15:14;;;;;;;;;;;;;;;;;;5017595;28;19913;-68
2022/02/01 15:17:39;;;;;;;;;;;;;;;;;;5017859;28;19919;-68
2022/02/01 15:20:04;;;;;;;;;;;;;;;;;;5015722;28;19921;-68
2022/02/01 15:22:30;;;;;;;;;;;;;;;;;;5019303;28;20016;-68
2022/02/01 15:24:57;;;;;;;;;;;;;;;;;;5026630;28;19928;-68
2022/02/01 15:27:22;;;;;;;;;;;;;;;;;;5028340;28;20422;-69
2022/02/01 15:29:47;;;;;;;;;;;;;;;;;;5025355;28;20008;-69
2022/02/01 15:32:12;;;;;;;;;;;;;;;;;;5018191;28;19964;-69
2022/02/01 15:34:39;;;;;;;;;;;;;;;;;;5026929;28;20005;-69
2022/02/01 15:37:06;;;;;;;;;;;;;;;;;;5015841;28;20396;-69
2022/02/01 15:58:22;;;;;;;;;;;;;;;;;;5022536;28;19977;-67
2022/02/01 16:00:47;;;;;;;;;;;;;;;;;;5018929;28;20377;-67
2022/02/01 16:03:22;;;;;;;;;;;;;;;;;;5029066;28;19909;-67
2022/02/01 16:05:47;;;;;;;;;;;;;;;;;;5060336;28;20002;-69
2022/02/01 16:08:47;;;;;;;;;;;;;;;;;;5060930;28;19913;-69
2022/02/01 16:11:07;;;;;;;;;;;;;;;;;;5055381;28;19948;-69
2022/02/01 16:13:41;;;;;;;;;;;;;;;;;;5046739;28;20389;-69
2022/02/01 16:16:08;;;;;;;;;;;;;;;;;;5053286;28;19931;-69
2022/02/01 16:18:34;;;;;;;;;;;;;;;;;;5047227;28;19970;-70
2022/02/01 16:21:00;;;;;;;;;;;;;;;;;;5055124;28;19948;-69
2022/02/01 16:23:25;;;;;;;;;;;;;;;;;;5057886;28;19920;-68
2022/02/01 16:25:50;;;;;;;;;;;;;;;;;;5056457;28;19924;-68
2022/02/01 16:28:15;;;;;;;;;;;;;;;;;;5056490;28;20003;-68
2022/02/01 16:30:42;;;;;;;;;;;;;;;;;;5062102;28;19982;-68
2022/02/01 16:33:07;;;;;;;;;;;;;;;;;;5056959;28;20373;-68
2022/02/01 16:35:32;;;;;;;;;;;;;;;;;;5053106;28;20391;-68
2022/02/01 16:37:57;;;;;;;;;;;;;;;;;;5052539;28;20374;-68
2022/02/01 16:40:25;;;;;;;;;;;;;;;;;;5054244;28;20574;-68
2022/02/01 16:42:50;;;;;;;;;;;;;;;;;;5052505;28;19970;-68
2022/02/01 16:45:16;;;;;;;;;;;;;;;;;;5056024;28;19924;-71
2022/02/01 16:47:41;;;;;;;;;;;;;;;;;;5048121;28;20011;-70
2022/02/01 16:50:07;;;;;;;;;;;;;;;;;;5049880;28;20171;-68
2022/02/01 16:52:37;;;;;;;;;;;;;;;;;;5050500;28;19916;-71
2022/02/01 16:55:09;;;;;;;;;;;;;;;;;;5046419;28;19928;-68
2022/02/01 16:57:45;;;;;;;;;;;;;;;;;;5054679;28;19917;-68
2022/02/01 17:00:13;;;;;;;;;;;;;;;;;;5054432;28;20178;-68
2022/02/01 17:02:38;;;;;;;;;;;;;;;;;;5049479;28;19970;-68
2022/02/01 17:05:04;;;;;;;;;;;;;;;;;;5055133;28;20143;-68
2022/02/01 17:07:29;;;;;;;;;;;;;;;;;;5056184;28;19921;-68
2022/02/01 17:09:57;;;;;;;;;;;;;;;;;;5051746;28;19916;-68
2022/02/01 17:18:16;;;;;;;;;;;;;;;;;;5006153;28;20136;-68
2022/02/01 17:23:22;;;;;;;;;;;;;;;;;;4993892;28;19932;-68
2022/02/01 17:25:47;;;;;;;;;;;;;;;;;;4996506;28;19926;-68
2022/02/01 17:28:12;;;;;;;;;;;;;;;;;;4999272;28;20460;-68
2022/02/01 17:30:37;;;;;;;;;;;;;;;;;;4994623;28;20445;-69
2022/02/01 17:33:03;;;;;;;;;;;;;;;;;;4994336;28;20405;-69
2022/02/01 17:35:28;;;;;;;;;;;;;;;;;;4994913;28;20003;-69
2022/02/01 17:37:53;;;;;;;;;;;;;;;;;;4992987;28;20076;-69
2022/02/01 17:40:20;;;;;;;;;;;;;;;;;;4990175;28;19923;-69
2022/02/01 17:42:49;;;;;;;;;;;;;;;;;;4993321;28;20311;-69
2022/02/01 17:45:14;;;;;;;;;;;;;;;;;;4991851;28;19939;-69
2022/02/01 17:47:39;;;;;;;;;;;;;;;;;;4996915;28;20182;-69
2022/02/01 17:50:05;;;;;;;;;;;;;;;;;;5042444;28;20418;-69
2022/02/01 17:52:44;;;;;;;;;;;;;;;;;;5055421;28;19927;-69
2022/02/01 17:55:09;;;;;;;;;;;;;;;;;;5053812;28;19981;-69
2022/02/01 17:57:34;;;;;;;;;;;;;;;;;;5054605;28;19921;-69
2022/02/01 18:00:00;;;;;;;;;;;;;;;;;;5055107;28;20207;-69
2022/02/01 18:02:25;;;;;;;;;;;;;;;;;;5053522;28;19955;-69
2022/02/01 18:04:50;;;;;;;;;;;;;;;;;;5064477;28;19931;-69
2022/02/01 18:07:19;;;;;;;;;;;;;;;;;;5054345;28;20008;-69
2022/02/01 18:09:44;;;;;;;;;;;;;;;;;;5053050;28;19981;-69
2022/02/01 18:12:18;;;;;;;;;;;;;;;;;;5053561;28;19928;-69
2022/02/01 18:17:08;;;;;;;;;;;;;;;;;;5054199;28;19920;-69
2022/02/01 18:19:33;;;;;;;;;;;;;;;;;;5055253;28;20300;-69
2022/02/01 18:21:58;;;;;;;;;;;;;;;;;;5051996;28;20616;-70
2022/02/01 18:24:24;;;;;;;;;;;;;;;;;;5053703;28;20388;-70
2022/02/01 18:26:49;;;;;;;;;;;;;;;;;;5055533;28;19920;-69
2022/02/01 18:29:14;;;;;;;;;;;;;;;;;;5054367;28;19924;-69
2022/02/01 18:31:39;;;;;;;;;;;;;;;;;;5055407;28;20388;-69
2022/02/01 18:34:06;;;;;;;;;;;;;;;;;;5053761;28;20034;-69
2022/02/01 18:36:31;;;;;;;;;;;;;;;;;;5054626;28;20015;-69
2022/02/01 18:38:56;;;;;;;;;;;;;;;;;;5053338;28;19920;-69
2022/02/01 18:41:21;;;;;;;;;;;;;;;;;;5052951;28;19923;-69
2022/02/01 18:43:46;;;;;;;;;;;;;;;;;;5053418;28;20121;-69
2022/02/01 18:46:14;;;;;;;;;;;;;;;;;;5049819;28;19924;-69
2022/02/01 18:48:39;;;;;;;;;;;;;;;;;;5052483;28;19920;-69
2022/02/01 18:51:15;;;;;;;;;;;;;;;;;;5050340;28;19928;-69
2022/02/01 18:58:33;;;;;;;;;;;;;;;;;;5054846;28;20339;-69
2022/02/01 19:11:49;;;;;;;;;;;;;;;;;;4990670;28;19926;-69
2022/02/01 19:14:14;;;;;;;;;;;;;;;;;;4992703;28;19948;-69
2022/02/01 19:16:39;;;;;;;;;;;;;;;;;;4987673;28;19919;-69
2022/02/01 19:19:05;;;;;;;;;;;;;;;;;;4993517;28;19925;-68
2022/02/01 19:21:30;;;;;;;;;;;;;;;;;;4990620;28;20023;-69
2022/02/01 19:23:57;;;;;;;;;;;;;;;;;;4988958;28;20008;-69
2022/02/01 19:26:23;;;;;;;;;;;;;;;;;;4990312;28;19925;-69
2022/02/01 19:28:49;;;;;;;;;;;;;;;;;;4995111;28;19944;-69
2022/02/01 19:31:16;;;;;;;;;;;;;;;;;;4993718;28;20228;-69
2022/02/01 19:33:41;;;;;;;;;;;;;;;;;;4994985;28;19917;-69
2022/02/01 19:36:08;;;;;;;;;;;;;;;;;;4992573;28;20110;-69
2022/02/01 19:38:33;;;;;;;;;;;;;;;;;;4991632;28;20249;-69
2022/02/01 19:41:00;;;;;;;;;;;;;;;;;;4993846;28;19917;-69
2022/02/01 19:43:25;;;;;;;;;;;;;;;;;;4995678;28;20225;-69